Crimcrest, Texas
Current Conditions -  °F | °C
As of 12:55 AM on Friday 28 Nov 2014 (Local Time) from KRFI Reporting Station
Clear Clear  
Wind Chill: 35°   Ceiling: Unl
Heat Index: 35°   Visibility: 10mi
Dew Point: 32°   Wind: 0mph
Humidity: 91%   Direction: NA
Pressure: 30.4"   Gusts: NA
Location:  32.1449°N, 94.7416°W
Report Text: KRFI 280655Z AUTO 00000KT 10SM CLR 02/00 A3040 RMK AO2 T00160002
Loading
Personal Weather Stations






























Interactive Weather Map New forecast layout! Learn more

10-Day Weather Forecast

Advertisements
Track Severe Weather on mobile